Warsaw, Minnesota
Current Conditions -  °F | °C
As of 3:34 AM on Monday 24 Nov 2014 (Local Time) from KFBL Reporting Station
Overcast Overcast  
Wind Chill: 19°   Ceiling: 1300
Heat Index: 30°   Visibility: 10mi
Dew Point: 27°   Wind: 15mph
Humidity: 86%   Direction: 300°WNW
Pressure: 29.31"   Gusts: 23mph
Location:  44.25°N, 93.39°W
Report Text: KFBL 240934Z AUTO 30013G20KT 10SM OVC013 M01/M03 A2931 RMK AO2
Loading
Personal Weather Stations






























Interactive Weather Map New forecast layout! Learn more

10-Day Weather Forecast

Advertisements
Track Severe Weather on mobile